createdAt,value
2022-09-21T00:02:21.121Z,1.55
2022-09-21T00:04:47.476Z,1.67
2022-09-21T00:07:13.805Z,1.44
2022-09-21T00:09:40.127Z,1.35
2022-09-21T00:12:06.457Z,1.58
2022-09-21T00:14:32.789Z,1.60
2022-09-21T00:16:59.178Z,1.41
2022-09-21T00:19:25.525Z,1.35
2022-09-21T00:21:51.914Z,1.52
2022-09-21T00:24:18.248Z,1.43
2022-09-21T00:26:44.575Z,1.57
2022-09-21T00:29:10.900Z,1.50
2022-09-21T00:31:37.275Z,1.33
2022-09-21T00:34:03.778Z,1.42
2022-09-21T00:36:30.218Z,1.52
2022-09-21T00:38:56.567Z,1.43
2022-09-21T00:41:22.892Z,1.48
2022-09-21T00:43:49.225Z,1.56
2022-09-21T00:46:15.558Z,1.58
2022-09-21T00:48:41.880Z,1.46
2022-09-21T00:51:08.212Z,1.61
2022-09-21T00:53:34.536Z,1.46
2022-09-21T00:56:00.855Z,1.44
2022-09-21T00:58:27.190Z,1.48
2022-09-21T01:00:53.561Z,1.47
2022-09-21T01:03:19.915Z,1.32
2022-09-21T01:05:46.249Z,1.48
2022-09-21T01:08:12.572Z,1.54
2022-09-21T01:10:38.901Z,1.30
2022-09-21T01:13:05.235Z,1.45
2022-09-21T01:15:31.560Z,1.31
2022-09-21T01:17:57.892Z,1.49
2022-09-21T01:20:24.218Z,1.45
2022-09-21T01:22:50.549Z,1.50
2022-09-21T01:25:16.882Z,1.57
2022-09-21T01:27:43.214Z,1.45
2022-09-21T01:30:09.538Z,1.46
2022-09-21T01:32:35.856Z,1.53
2022-09-21T01:35:02.167Z,1.53
2022-09-21T01:37:28.491Z,1.62
2022-09-21T01:39:54.823Z,1.49
2022-09-21T01:42:21.161Z,1.42
2022-09-21T01:44:47.489Z,1.45
2022-09-21T01:47:13.825Z,1.67
2022-09-21T01:49:40.179Z,1.43
2022-09-21T01:52:06.507Z,1.55
2022-09-21T01:54:32.825Z,1.35
2022-09-21T01:56:59.157Z,1.59
2022-09-21T01:59:25.485Z,1.42
2022-09-21T02:01:51.945Z,1.34
2022-09-21T02:04:18.349Z,1.54
2022-09-21T02:06:44.692Z,1.35
2022-09-21T02:09:11.022Z,1.55
2022-09-21T02:11:37.360Z,1.57
2022-09-21T02:14:03.686Z,1.46
2022-09-21T02:16:30.053Z,1.61
2022-09-21T02:18:56.436Z,1.53
2022-09-21T02:21:22.744Z,1.54
2022-09-21T02:23:49.079Z,1.62
2022-09-21T02:26:15.411Z,1.73
2022-09-21T02:28:41.791Z,1.67
2022-09-21T02:31:08.201Z,1.74
2022-09-21T02:33:34.560Z,1.93
2022-09-21T02:36:00.883Z,1.72
2022-09-21T02:38:27.214Z,1.79
2022-09-21T02:40:53.534Z,1.75
2022-09-21T02:43:19.847Z,1.62
2022-09-21T02:45:46.176Z,1.82
2022-09-21T02:48:12.508Z,1.88
2022-09-21T02:50:38.842Z,1.67
2022-09-21T02:53:05.169Z,2.01
2022-09-21T02:55:31.505Z,1.87
2022-09-21T02:57:57.840Z,1.71
2022-09-21T03:00:24.215Z,1.86
2022-09-21T03:02:50.589Z,1.79
2022-09-21T03:05:16.935Z,1.97
2022-09-21T03:07:43.279Z,1.80
2022-09-21T03:10:09.613Z,1.91
2022-09-21T03:12:35.948Z,2.02
2022-09-21T03:15:02.272Z,1.89
2022-09-21T03:17:28.612Z,1.86
2022-09-21T03:19:54.989Z,2.09
2022-09-21T03:22:21.316Z,2.02
2022-09-21T03:24:47.643Z,1.91
2022-09-21T03:27:13.972Z,2.01
2022-09-21T03:29:40.306Z,2.24
2022-09-21T03:32:06.629Z,2.21
2022-09-21T03:34:32.968Z,2.03
2022-09-21T03:36:59.296Z,1.87
2022-09-21T03:39:25.620Z,2.22
2022-09-21T03:41:51.952Z,2.03
2022-09-21T03:44:18.286Z,1.99
2022-09-21T03:46:44.617Z,2.07
2022-09-21T03:49:10.947Z,2.07
2022-09-21T03:51:37.296Z,2.01
2022-09-21T03:54:03.628Z,1.97
2022-09-21T03:56:29.956Z,2.08
2022-09-21T03:58:56.281Z,2.22
2022-09-21T04:01:23.559Z,2.38
2022-09-21T04:03:49.921Z,2.26
2022-09-21T04:06:16.249Z,2.16
2022-09-21T04:08:43.830Z,2.10
2022-09-21T04:11:10.196Z,2.22
2022-09-21T04:13:36.524Z,2.21
2022-09-21T04:16:02.860Z,2.24
2022-09-21T04:18:29.257Z,2.18
2022-09-21T04:20:55.588Z,2.39
2022-09-21T04:23:21.899Z,2.76
2022-09-21T04:25:48.236Z,2.81
2022-09-21T04:28:14.550Z,2.61
2022-09-21T04:30:40.943Z,25.93
2022-09-21T04:33:07.292Z,39.46
2022-09-21T04:35:33.632Z,33.15
2022-09-21T04:37:59.967Z,22.30
2022-09-21T04:40:26.354Z,26.97
2022-09-21T04:42:52.736Z,41.25
2022-09-21T04:45:19.071Z,45.14
2022-09-21T04:47:45.421Z,39.44
2022-09-21T04:50:11.768Z,34.78
2022-09-21T04:52:38.112Z,34.99
2022-09-21T04:55:04.478Z,33.49
2022-09-21T04:57:30.820Z,30.36
2022-09-21T04:59:57.154Z,29.28
2022-09-21T05:02:23.498Z,25.70
2022-09-21T05:04:51.076Z,24.09
2022-09-21T05:07:17.611Z,21.77
2022-09-21T05:09:43.936Z,21.55
2022-09-21T05:12:10.268Z,21.64
2022-09-21T05:14:36.605Z,21.54
2022-09-21T05:17:02.944Z,21.95
2022-09-21T05:19:29.290Z,18.69
2022-09-21T05:21:55.644Z,18.86
2022-09-21T05:24:21.987Z,18.37
2022-09-21T05:26:48.317Z,19.12
2022-09-21T05:29:14.656Z,18.06
2022-09-21T05:31:41.072Z,18.47
2022-09-21T05:34:07.554Z,18.17
2022-09-21T05:36:33.908Z,18.59
2022-09-21T05:39:00.237Z,16.50
2022-09-21T05:41:26.572Z,15.05
2022-09-21T05:43:52.909Z,15.18
2022-09-21T05:46:19.273Z,15.47
2022-09-21T05:48:45.678Z,15.71
2022-09-21T05:51:12.005Z,14.69
2022-09-21T05:53:38.337Z,13.71
2022-09-21T05:56:04.673Z,13.28
2022-09-21T05:58:31.015Z,13.55
2022-09-21T06:00:57.404Z,14.44
2022-09-21T06:03:23.765Z,13.23
2022-09-21T06:05:50.095Z,12.09
2022-09-21T06:08:16.437Z,11.83
2022-09-21T06:10:42.763Z,12.63
2022-09-21T06:13:09.089Z,11.91
2022-09-21T06:15:35.429Z,12.19
2022-09-21T06:18:01.765Z,11.46
2022-09-21T06:20:28.143Z,11.14
2022-09-21T06:22:54.500Z,10.50
2022-09-21T06:25:20.823Z,10.69
2022-09-21T06:27:47.177Z,10.40
2022-09-21T06:30:13.504Z,10.38
2022-09-21T06:32:39.831Z,10.59
2022-09-21T06:35:06.167Z,9.21
2022-09-21T06:37:32.496Z,9.37
2022-09-21T06:39:58.857Z,9.12
2022-09-21T06:42:25.201Z,8.96
2022-09-21T06:44:51.528Z,8.96
2022-09-21T06:47:17.862Z,8.82
2022-09-21T06:49:44.189Z,8.16
2022-09-21T06:52:10.520Z,8.39
2022-09-21T06:54:36.861Z,8.00
2022-09-21T06:57:03.192Z,8.22
2022-09-21T06:59:29.529Z,7.59
2022-09-21T07:01:55.960Z,7.49
2022-09-21T07:04:25.081Z,8.20
2022-09-21T07:06:51.723Z,8.05
2022-09-21T07:12:04.368Z,7.85
2022-09-21T07:14:30.703Z,7.16
2022-09-21T07:16:57.041Z,7.43
2022-09-21T07:19:23.368Z,6.79
2022-09-21T07:21:49.698Z,6.47
2022-09-21T07:24:16.044Z,6.49
2022-09-21T07:26:42.374Z,7.08
2022-09-21T07:29:08.701Z,6.39
2022-09-21T07:31:35.168Z,6.36
2022-09-21T07:34:01.610Z,6.21
2022-09-21T07:36:27.947Z,6.43
2022-09-21T07:38:54.261Z,5.98
2022-09-21T07:41:20.587Z,6.09
2022-09-21T07:43:46.920Z,5.87
2022-09-21T07:46:13.253Z,5.77
2022-09-21T07:48:39.570Z,5.60
2022-09-21T07:51:05.900Z,6.02
2022-09-21T07:53:32.356Z,5.82
2022-09-21T07:55:58.692Z,5.71
2022-09-21T07:58:25.233Z,5.69
2022-09-21T08:00:51.657Z,5.50
2022-09-21T08:03:18.003Z,5.34
2022-09-21T08:05:44.341Z,5.07
2022-09-21T08:08:10.665Z,5.28
2022-09-21T08:10:36.992Z,4.98
2022-09-21T08:13:03.346Z,5.42
2022-09-21T08:18:09.507Z,5.38
2022-09-21T08:20:35.836Z,5.13
2022-09-21T08:23:02.151Z,5.18
2022-09-21T08:25:28.582Z,5.13
2022-09-21T08:27:54.912Z,5.04
2022-09-21T08:30:21.250Z,4.77
2022-09-21T08:32:51.374Z,4.97
2022-09-21T08:35:18.232Z,4.86
2022-09-21T08:37:44.566Z,5.11
2022-09-21T08:40:10.930Z,5.04
2022-09-21T08:42:37.260Z,4.64
2022-09-21T08:45:03.636Z,4.81
2022-09-21T08:47:29.961Z,4.70
2022-09-21T08:49:56.293Z,4.59
2022-09-21T08:52:22.611Z,4.35
2022-09-21T08:54:48.940Z,4.18
2022-09-21T08:57:15.270Z,4.65
2022-09-21T08:59:41.595Z,4.14
2022-09-21T09:02:08.010Z,4.47
2022-09-21T09:04:34.369Z,4.07
2022-09-21T09:07:00.694Z,4.29
2022-09-21T09:09:27.035Z,4.38
2022-09-21T09:11:53.383Z,4.15
2022-09-21T09:14:19.710Z,4.44
2022-09-21T09:16:46.035Z,3.94
2022-09-21T09:19:12.400Z,4.00
2022-09-21T09:21:38.736Z,4.27
2022-09-21T09:24:05.071Z,4.02
2022-09-21T09:26:31.414Z,4.12
2022-09-21T09:28:57.751Z,3.96
2022-09-21T09:31:24.153Z,4.37
2022-09-21T09:33:50.544Z,4.41
2022-09-21T09:36:16.867Z,3.89
2022-09-21T09:38:43.208Z,4.00
2022-09-21T09:41:09.550Z,3.98
2022-09-21T09:43:35.879Z,4.18
2022-09-21T09:46:02.210Z,4.11
2022-09-21T09:48:28.535Z,3.76
2022-09-21T09:50:54.867Z,3.85
2022-09-21T09:53:21.217Z,3.64
2022-09-21T09:55:47.548Z,3.99
2022-09-21T09:58:13.904Z,3.51
2022-09-21T10:00:40.232Z,3.89
2022-09-21T10:03:06.561Z,3.84
2022-09-21T10:05:32.894Z,3.63
2022-09-21T10:07:59.244Z,3.82
2022-09-21T10:10:25.567Z,3.25
2022-09-21T10:12:51.945Z,3.47
2022-09-21T10:15:18.254Z,3.36
2022-09-21T10:17:44.615Z,3.37
2022-09-21T10:20:10.946Z,3.43
2022-09-21T10:22:37.263Z,3.32
2022-09-21T10:25:03.597Z,3.29
2022-09-21T10:27:29.935Z,3.34
2022-09-21T10:29:56.256Z,3.25
2022-09-21T10:32:22.581Z,3.21
2022-09-21T10:34:48.899Z,3.36
2022-09-21T10:37:15.225Z,3.46
2022-09-21T10:39:41.562Z,3.33
2022-09-21T10:42:07.892Z,3.54
2022-09-21T10:44:34.223Z,3.08
2022-09-21T10:47:00.558Z,3.14
2022-09-21T10:49:26.884Z,3.31
2022-09-21T10:51:53.212Z,3.06
2022-09-21T10:54:19.554Z,3.09
2022-09-21T10:56:45.885Z,2.88
2022-09-21T10:59:12.210Z,3.07
2022-09-21T11:01:38.595Z,3.22
2022-09-21T11:04:05.052Z,3.21
2022-09-21T11:06:31.434Z,3.14
2022-09-21T11:08:57.768Z,2.96
2022-09-21T11:11:24.105Z,2.95
2022-09-21T11:13:50.456Z,3.16
2022-09-21T11:16:16.850Z,3.15
2022-09-21T11:18:43.247Z,2.91
2022-09-21T11:21:09.581Z,2.97
2022-09-21T11:23:35.916Z,2.93
2022-09-21T11:26:02.247Z,3.19
2022-09-21T11:28:28.584Z,3.04
2022-09-21T11:30:54.988Z,3.09
2022-09-21T11:33:21.345Z,2.88
2022-09-21T11:35:47.662Z,2.95
2022-09-21T11:38:13.995Z,2.95
2022-09-21T11:40:40.344Z,2.96
2022-09-21T11:43:06.695Z,2.98
2022-09-21T11:45:33.039Z,2.90
2022-09-21T11:47:59.369Z,2.77
2022-09-21T11:50:30.583Z,2.63
2022-09-21T11:52:57.347Z,2.92
2022-09-21T11:55:23.673Z,2.66
2022-09-21T11:57:54.213Z,2.80
2022-09-21T12:00:21.515Z,2.69
2022-09-21T12:02:47.953Z,2.85
2022-09-21T12:05:14.424Z,2.67
2022-09-21T12:07:40.756Z,2.66
2022-09-21T12:10:10.333Z,2.94
2022-09-21T12:12:37.481Z,2.78
2022-09-21T12:15:03.857Z,2.59
2022-09-21T12:17:30.216Z,2.58
2022-09-21T12:19:56.555Z,2.67
2022-09-21T12:22:22.889Z,2.71
2022-09-21T12:24:49.218Z,2.62
2022-09-21T12:27:15.547Z,2.52
2022-09-21T12:29:41.912Z,2.44
2022-09-21T12:32:08.235Z,2.60
2022-09-21T12:34:34.561Z,2.43
2022-09-21T12:37:00.887Z,2.43
2022-09-21T12:39:27.217Z,2.46
2022-09-21T12:41:53.549Z,2.45
2022-09-21T12:44:19.899Z,2.62
2022-09-21T12:46:46.229Z,2.52
2022-09-21T12:49:12.560Z,2.41
2022-09-21T12:51:38.893Z,2.60
2022-09-21T12:54:05.278Z,2.44
2022-09-21T12:56:31.654Z,2.61
2022-09-21T12:58:58.039Z,2.31
2022-09-21T13:01:24.489Z,2.61
2022-09-21T13:03:50.924Z,2.52
2022-09-21T13:06:17.243Z,2.48
2022-09-21T13:08:43.630Z,2.49
2022-09-21T13:11:09.994Z,2.61
2022-09-21T13:13:36.325Z,2.33
2022-09-21T13:16:02.716Z,2.50
2022-09-21T13:18:32.492Z,2.41
2022-09-21T13:21:00.131Z,2.27
2022-09-21T13:23:26.454Z,2.45
2022-09-21T13:25:52.775Z,2.49
2022-09-21T13:28:19.107Z,2.36
2022-09-21T13:30:45.444Z,2.33
2022-09-21T13:33:11.767Z,2.56
2022-09-21T13:35:38.106Z,2.18
2022-09-21T13:38:04.446Z,2.13
2022-09-21T13:40:30.790Z,2.56
2022-09-21T13:42:57.136Z,2.19
2022-09-21T13:45:23.601Z,2.15
2022-09-21T13:47:49.975Z,2.27
2022-09-21T13:50:16.312Z,2.26
2022-09-21T13:52:42.636Z,2.40
2022-09-21T13:55:08.979Z,2.37
2022-09-21T13:57:35.294Z,2.33
2022-09-21T14:00:01.630Z,2.23
2022-09-21T14:02:28.050Z,2.25
2022-09-21T14:04:54.435Z,2.26
2022-09-21T14:07:20.767Z,2.26
2022-09-21T14:09:47.099Z,2.58
2022-09-21T14:12:13.432Z,2.28
2022-09-21T14:14:39.738Z,2.24
2022-09-21T14:17:06.112Z,2.21
2022-09-21T14:19:32.450Z,2.21
2022-09-21T14:21:58.773Z,2.24
2022-09-21T14:24:25.105Z,2.12
2022-09-21T14:26:51.438Z,2.14
2022-09-21T14:29:17.764Z,2.08
2022-09-21T14:31:44.125Z,2.18
2022-09-21T14:34:10.454Z,2.21
2022-09-21T14:36:36.784Z,2.07
2022-09-21T14:39:03.114Z,2.20
2022-09-21T14:41:29.503Z,2.18
2022-09-21T14:43:55.829Z,2.15
2022-09-21T14:46:22.179Z,2.18
2022-09-21T14:48:48.565Z,2.03
2022-09-21T14:51:14.904Z,2.12
2022-09-21T14:53:41.246Z,2.00
2022-09-21T14:56:07.581Z,2.29
2022-09-21T14:58:33.902Z,2.22
2022-09-21T15:01:00.242Z,1.90
2022-09-21T15:03:26.674Z,2.14
2022-09-21T15:05:53.088Z,2.18
2022-09-21T15:08:19.416Z,1.96
2022-09-21T15:10:45.743Z,2.16
2022-09-21T15:13:12.079Z,2.04
2022-09-21T15:15:38.402Z,2.04
2022-09-21T15:18:04.732Z,2.19
2022-09-21T15:20:31.073Z,2.05
2022-09-21T15:22:57.403Z,2.06
2022-09-21T15:25:23.747Z,2.18
2022-09-21T15:27:50.094Z,2.05
2022-09-21T15:30:16.417Z,2.22
2022-09-21T15:32:42.746Z,1.90
2022-09-21T15:35:09.071Z,2.02
2022-09-21T15:37:35.402Z,1.96
2022-09-21T15:40:01.791Z,1.88
2022-09-21T15:42:28.156Z,2.21
2022-09-21T15:44:54.485Z,1.99
2022-09-21T15:47:20.826Z,1.93
2022-09-21T15:49:47.165Z,2.01
2022-09-21T15:52:13.495Z,1.98
2022-09-21T15:54:39.824Z,2.07
2022-09-21T15:57:08.390Z,1.98
2022-09-21T15:59:35.007Z,2.20
2022-09-21T16:02:01.348Z,2.02
2022-09-21T16:04:27.671Z,1.89
2022-09-21T16:06:54.016Z,2.03
2022-09-21T16:09:20.349Z,1.99
2022-09-21T16:11:46.676Z,1.94
2022-09-21T16:14:13.004Z,1.80
2022-09-21T16:16:39.387Z,2.06
2022-09-21T16:19:05.732Z,2.00
2022-09-21T16:21:32.076Z,1.94
2022-09-21T16:23:58.448Z,1.69
2022-09-21T16:26:24.786Z,1.93
2022-09-21T16:28:51.121Z,1.93
2022-09-21T16:31:17.522Z,1.90
2022-09-21T16:33:43.938Z,1.80
2022-09-21T16:36:10.286Z,2.05
2022-09-21T16:38:36.612Z,1.81
2022-09-21T16:41:02.945Z,1.84
2022-09-21T16:43:29.281Z,1.72
2022-09-21T16:45:55.607Z,1.77
2022-09-21T16:48:21.936Z,1.95
2022-09-21T16:50:48.276Z,1.84
2022-09-21T16:53:14.605Z,1.88
2022-09-21T16:55:40.953Z,1.92
2022-09-21T16:58:07.285Z,2.02
2022-09-21T17:00:33.644Z,2.10
2022-09-21T17:02:59.981Z,1.97
2022-09-21T17:05:26.316Z,1.99
2022-09-21T17:07:52.648Z,1.99
2022-09-21T17:10:18.980Z,1.99
2022-09-21T17:12:45.309Z,1.87
2022-09-21T17:15:11.649Z,1.82
2022-09-21T17:17:37.974Z,1.96
2022-09-21T17:20:04.300Z,1.85
2022-09-21T17:22:30.639Z,1.86
2022-09-21T17:24:56.950Z,1.72
2022-09-21T17:27:23.275Z,1.88
2022-09-21T17:29:49.910Z,1.84
2022-09-21T17:32:16.456Z,1.81
2022-09-21T17:34:42.909Z,1.91
2022-09-21T17:37:09.255Z,1.77
2022-09-21T17:39:35.588Z,1.81
2022-09-21T17:42:01.913Z,1.80
2022-09-21T17:44:28.267Z,1.77
2022-09-21T17:46:54.599Z,1.78
2022-09-21T17:49:20.933Z,1.83
2022-09-21T17:51:47.261Z,2.04
2022-09-21T17:54:13.596Z,2.14
2022-09-21T17:56:39.940Z,2.24
2022-09-21T17:59:06.266Z,2.45
2022-09-21T18:01:32.645Z,2.42
2022-09-21T18:03:59.023Z,2.20
2022-09-21T18:06:25.352Z,1.97
2022-09-21T18:08:51.686Z,2.04
2022-09-21T18:11:18.025Z,2.18
2022-09-21T18:13:44.356Z,2.24
2022-09-21T18:16:10.758Z,2.29
2022-09-21T18:18:37.123Z,2.09
2022-09-21T18:21:03.443Z,1.99
2022-09-21T18:23:29.763Z,2.11
2022-09-21T18:25:56.096Z,1.94
2022-09-21T18:28:22.435Z,2.22
2022-09-21T18:30:48.855Z,2.14
2022-09-21T18:33:15.224Z,1.92
2022-09-21T18:35:41.556Z,2.19
2022-09-21T18:38:07.894Z,2.01
2022-09-21T18:40:34.250Z,2.06
2022-09-21T18:43:00.620Z,2.18
2022-09-21T18:45:26.952Z,2.16
2022-09-21T18:47:53.384Z,1.80
2022-09-21T18:50:19.711Z,2.15
2022-09-21T18:52:46.031Z,1.80
2022-09-21T18:55:12.364Z,2.05
2022-09-21T18:57:38.688Z,2.04
2022-09-21T19:00:04.998Z,2.02
2022-09-21T19:02:31.429Z,2.34
2022-09-21T19:04:57.888Z,2.06
2022-09-21T19:07:24.227Z,2.01
2022-09-21T19:09:50.538Z,2.14
2022-09-21T19:12:16.879Z,2.06
2022-09-21T19:14:43.202Z,2.16
2022-09-21T19:17:09.536Z,2.14
2022-09-21T19:19:35.873Z,1.97
2022-09-21T19:22:02.210Z,2.23
2022-09-21T19:24:28.542Z,2.08
2022-09-21T19:26:54.877Z,2.14
2022-09-21T19:29:21.215Z,2.15
2022-09-21T19:31:47.540Z,2.27
2022-09-21T19:34:13.873Z,2.24
2022-09-21T19:36:40.210Z,2.10
2022-09-21T19:39:06.613Z,2.21
2022-09-21T19:41:33.054Z,2.13
2022-09-21T19:43:59.376Z,2.25
2022-09-21T19:46:25.739Z,2.23
2022-09-21T19:48:52.098Z,2.28
2022-09-21T19:51:18.429Z,2.45
2022-09-21T19:53:44.748Z,2.38
2022-09-21T19:56:11.085Z,2.29
2022-09-21T19:58:37.398Z,2.29
2022-09-21T20:01:03.745Z,2.24
2022-09-21T20:03:31.761Z,2.06
2022-09-21T20:05:58.237Z,2.17
2022-09-21T20:08:24.550Z,2.28
2022-09-21T20:10:50.876Z,2.30
2022-09-21T20:13:17.199Z,2.17
2022-09-21T20:15:43.533Z,2.15
2022-09-21T20:18:09.856Z,2.02
2022-09-21T20:20:36.185Z,2.23
2022-09-21T20:23:02.501Z,2.16
2022-09-21T20:25:28.833Z,2.07
2022-09-21T20:27:55.153Z,2.31
2022-09-21T20:30:21.489Z,2.13
2022-09-21T20:32:47.812Z,2.18
2022-09-21T20:35:14.132Z,2.16
2022-09-21T20:37:40.465Z,2.00
2022-09-21T20:40:06.900Z,2.40
2022-09-21T20:42:33.271Z,2.17
2022-09-21T20:44:59.596Z,2.54
2022-09-21T20:47:25.929Z,2.32
2022-09-21T20:49:52.255Z,2.17
2022-09-21T20:52:18.581Z,2.32
2022-09-21T20:54:48.983Z,2.47
2022-09-21T20:57:15.767Z,2.21
2022-09-21T20:59:42.097Z,2.63
2022-09-21T21:02:08.428Z,2.50
2022-09-21T21:04:34.745Z,2.46
2022-09-21T21:07:01.086Z,2.32
2022-09-21T21:09:27.421Z,2.34
2022-09-21T21:11:53.760Z,2.33
2022-09-21T21:14:20.093Z,2.45
2022-09-21T21:16:46.473Z,2.53
2022-09-21T21:19:12.864Z,2.35
2022-09-21T21:21:39.206Z,2.35
2022-09-21T21:24:05.610Z,2.16
2022-09-21T21:26:57.431Z,2.63
2022-09-21T21:29:18.370Z,2.28
2022-09-21T21:31:44.762Z,2.31
2022-09-21T21:34:11.117Z,2.33
2022-09-21T21:36:37.444Z,2.46
2022-09-21T21:39:03.759Z,2.50
2022-09-21T21:41:30.084Z,2.36
2022-09-21T21:43:56.433Z,2.31
2022-09-21T21:46:22.904Z,2.47
2022-09-21T21:48:49.298Z,2.24
2022-09-21T21:51:15.631Z,2.37
2022-09-21T21:53:41.957Z,2.17
2022-09-21T21:56:08.294Z,2.43
2022-09-21T21:58:34.620Z,2.28
2022-09-21T22:01:00.988Z,2.17
2022-09-21T22:03:27.354Z,2.26
2022-09-21T22:05:53.669Z,2.19
2022-09-21T22:08:19.992Z,2.18
2022-09-21T22:10:46.332Z,2.19
2022-09-21T22:13:12.643Z,2.26
2022-09-21T22:15:38.972Z,2.28
2022-09-21T22:18:05.300Z,2.41
2022-09-21T22:20:31.614Z,2.39
2022-09-21T22:22:57.940Z,2.23
2022-09-21T22:25:24.263Z,2.15
2022-09-21T22:27:50.587Z,2.15
2022-09-21T22:30:16.843Z,2.14
2022-09-21T22:32:43.159Z,1.99
2022-09-21T22:35:09.484Z,2.11
2022-09-21T22:37:35.805Z,2.11
2022-09-21T22:40:02.230Z,1.98
2022-09-21T22:42:28.605Z,2.02
2022-09-21T22:44:54.930Z,2.03
2022-09-21T22:47:21.261Z,2.05
2022-09-21T22:49:47.579Z,2.02
2022-09-21T22:52:13.910Z,2.04
2022-09-21T22:54:40.236Z,2.08
2022-09-21T22:57:06.567Z,1.90
2022-09-21T22:59:32.892Z,1.94
2022-09-21T23:01:59.225Z,2.06
2022-09-21T23:04:25.574Z,2.07
2022-09-21T23:06:51.903Z,1.93
2022-09-21T23:09:18.363Z,1.93
2022-09-21T23:11:44.692Z,1.93
2022-09-21T23:14:11.036Z,1.85
2022-09-21T23:16:37.391Z,1.96
2022-09-21T23:19:03.765Z,1.90
2022-09-21T23:21:30.096Z,1.84
2022-09-21T23:23:56.447Z,1.83
2022-09-21T23:26:22.801Z,1.84
2022-09-21T23:28:49.120Z,2.05
2022-09-21T23:31:15.470Z,1.97
2022-09-21T23:33:41.839Z,1.95
2022-09-21T23:36:08.155Z,1.81
2022-09-21T23:38:34.483Z,2.07
2022-09-21T23:41:00.813Z,1.85
2022-09-21T23:43:27.122Z,1.85
2022-09-21T23:45:53.435Z,1.82
2022-09-21T23:48:19.760Z,1.92
2022-09-21T23:50:46.089Z,2.00
2022-09-21T23:53:12.419Z,1.74
2022-09-21T23:55:38.756Z,1.81
2022-09-21T23:58:05.073Z,1.57
